Accueil
METAR-TAF:

METAR-TAF

Aéroports :

Aérodrome de Fort-Dauphin

Fort-Dauphin, Madagascar

latitude: 25-02S, longitude: 046-57E, altitude: 8 m

Observation

Le bulletin a été fait il y a 1 heure et 0 minutes, à 02:00 UTC
Vent 10 kt de est/nord-est
Température 19°C
Humidité 88%
Pression 1022 hPa
Visibilité 10 km ou plus
Quelques nuages à une hauteur de 1600 ft
Nuages épars à une hauteur de 3300 ft

METAR: FMSD 240200Z 06010KT 9999 FEW016 SCT033 19/17 Q1022

Heure: 06:00 (03:00 UTC)


TAF: absent

Observations et prévisions météorologiques de plus de 4000 aéroports (messages METAR et TAF).

Les stations disponibles sont représentées par des disques jaunes et rouges sur la carte.

Passer la souris dessus pour voir le nom de la station.

Cliquer dessus pour voir les observations et prévisions météorologiques.

Pour changer de carte: cliquez sur les boutons verts avec une croix noire pour zoomer, sur le bouton vert avec un tiret pour effectuer un zoom arrière, ou sur les flèches vertes pour les cartes adjacentes.


METAR-TAF: